sensor_id;sensor_type;location;lat;lon;timestamp;P1;durP1;ratioP1;P2;durP2;ratioP2
43835;SDS011;39345;43.964;25.340;2022-07-29T00:01:40;7.53;;;5.90;;
43835;SDS011;39345;43.964;25.340;2022-07-29T00:04:07;8.27;;;5.93;;
43835;SDS011;39345;43.964;25.340;2022-07-29T00:06:35;8.50;;;6.30;;
43835;SDS011;39345;43.964;25.340;2022-07-29T00:09:02;8.60;;;6.03;;
43835;SDS011;39345;43.964;25.340;2022-07-29T00:11:30;9.00;;;6.53;;
43835;SDS011;39345;43.964;25.340;2022-07-29T00:13:58;11.10;;;5.82;;
43835;SDS011;39345;43.964;25.340;2022-07-29T00:16:25;11.73;;;6.35;;
43835;SDS011;39345;43.964;25.340;2022-07-29T00:18:53;18.77;;;6.57;;
43835;SDS011;39345;43.964;25.340;2022-07-29T00:21:20;12.10;;;6.88;;
43835;SDS011;39345;43.964;25.340;2022-07-29T00:23:48;9.80;;;6.07;;
43835;SDS011;39345;43.964;25.340;2022-07-29T00:26:15;8.57;;;6.25;;
43835;SDS011;39345;43.964;25.340;2022-07-29T00:28:43;8.27;;;6.10;;
43835;SDS011;39345;43.964;25.340;2022-07-29T00:31:10;7.18;;;6.05;;
43835;SDS011;39345;43.964;25.340;2022-07-29T00:33:38;6.95;;;6.18;;
43835;SDS011;39345;43.964;25.340;2022-07-29T00:36:05;8.52;;;5.80;;
43835;SDS011;39345;43.964;25.340;2022-07-29T00:38:33;9.20;;;6.28;;
43835;SDS011;39345;43.964;25.340;2022-07-29T00:41:00;7.28;;;6.43;;
43835;SDS011;39345;43.964;25.340;2022-07-29T00:43:28;9.18;;;6.30;;
43835;SDS011;39345;43.964;25.340;2022-07-29T00:45:55;10.02;;;6.45;;
43835;SDS011;39345;43.964;25.340;2022-07-29T00:48:23;7.65;;;6.22;;
43835;SDS011;39345;43.964;25.340;2022-07-29T00:50:50;8.40;;;6.75;;
43835;SDS011;39345;43.964;25.340;2022-07-29T00:53:18;10.55;;;6.80;;
43835;SDS011;39345;43.964;25.340;2022-07-29T00:55:47;8.27;;;6.63;;
43835;SDS011;39345;43.964;25.340;2022-07-29T00:58:17;11.38;;;9.02;;
43835;SDS011;39345;43.964;25.340;2022-07-29T01:00:45;7.93;;;6.72;;
43835;SDS011;39345;43.964;25.340;2022-07-29T01:03:12;7.25;;;6.55;;
43835;SDS011;39345;43.964;25.340;2022-07-29T01:05:40;9.73;;;6.40;;
43835;SDS011;39345;43.964;25.340;2022-07-29T01:08:16;8.68;;;6.88;;
43835;SDS011;39345;43.964;25.340;2022-07-29T01:10:44;9.98;;;8.98;;
43835;SDS011;39345;43.964;25.340;2022-07-29T01:13:13;7.90;;;6.32;;
43835;SDS011;39345;43.964;25.340;2022-07-29T01:15:46;11.70;;;8.10;;
43835;SDS011;39345;43.964;25.340;2022-07-29T01:18:20;8.95;;;7.35;;
43835;SDS011;39345;43.964;25.340;2022-07-29T01:23:58;7.95;;;6.57;;
43835;SDS011;39345;43.964;25.340;2022-07-29T01:26:34;9.93;;;6.53;;
43835;SDS011;39345;43.964;25.340;2022-07-29T01:29:22;10.38;;;8.48;;
43835;SDS011;39345;43.964;25.340;2022-07-29T01:32:02;8.82;;;7.43;;
43835;SDS011;39345;43.964;25.340;2022-07-29T01:34:50;10.85;;;8.02;;
43835;SDS011;39345;43.964;25.340;2022-07-29T01:39:53;9.13;;;6.40;;
43835;SDS011;39345;43.964;25.340;2022-07-29T01:47:26;9.30;;;6.75;;
43835;SDS011;39345;43.964;25.340;2022-07-29T01:50:01;9.13;;;7.22;;
43835;SDS011;39345;43.964;25.340;2022-07-29T01:55:03;6.47;;;5.85;;
43835;SDS011;39345;43.964;25.340;2022-07-29T01:57:32;8.82;;;6.20;;
43835;SDS011;39345;43.964;25.340;2022-07-29T02:00:00;8.63;;;6.65;;
43835;SDS011;39345;43.964;25.340;2022-07-29T02:02:37;6.93;;;6.22;;
43835;SDS011;39345;43.964;25.340;2022-07-29T02:05:06;9.73;;;6.35;;
43835;SDS011;39345;43.964;25.340;2022-07-29T02:07:35;8.70;;;6.43;;
43835;SDS011;39345;43.964;25.340;2022-07-29T02:10:04;16.73;;;12.73;;
43835;SDS011;39345;43.964;25.340;2022-07-29T02:12:33;11.10;;;6.50;;
43835;SDS011;39345;43.964;25.340;2022-07-29T02:15:02;10.30;;;5.85;;
43835;SDS011;39345;43.964;25.340;2022-07-29T02:17:42;7.30;;;6.43;;
43835;SDS011;39345;43.964;25.340;2022-07-29T02:20:11;11.40;;;7.90;;
43835;SDS011;39345;43.964;25.340;2022-07-29T02:22:39;13.90;;;6.82;;
43835;SDS011;39345;43.964;25.340;2022-07-29T02:25:07;20.45;;;6.82;;
43835;SDS011;39345;43.964;25.340;2022-07-29T02:27:39;13.77;;;6.90;;
43835;SDS011;39345;43.964;25.340;2022-07-29T02:30:08;9.77;;;7.32;;
43835;SDS011;39345;43.964;25.340;2022-07-29T02:32:37;12.75;;;8.57;;
43835;SDS011;39345;43.964;25.340;2022-07-29T02:35:08;10.75;;;8.00;;
43835;SDS011;39345;43.964;25.340;2022-07-29T02:37:36;17.70;;;11.60;;
43835;SDS011;39345;43.964;25.340;2022-07-29T02:40:04;12.23;;;8.02;;
43835;SDS011;39345;43.964;25.340;2022-07-29T02:42:33;13.75;;;7.32;;
43835;SDS011;39345;43.964;25.340;2022-07-29T02:45:02;11.27;;;6.75;;
43835;SDS011;39345;43.964;25.340;2022-07-29T02:53:20;13.63;;;9.88;;
43835;SDS011;39345;43.964;25.340;2022-07-29T02:55:51;13.23;;;6.97;;
43835;SDS011;39345;43.964;25.340;2022-07-29T02:58:29;12.15;;;6.82;;
43835;SDS011;39345;43.964;25.340;2022-07-29T03:01:01;11.98;;;7.60;;
43835;SDS011;39345;43.964;25.340;2022-07-29T03:03:31;14.55;;;7.28;;
43835;SDS011;39345;43.964;25.340;2022-07-29T03:05:59;14.23;;;7.38;;
43835;SDS011;39345;43.964;25.340;2022-07-29T03:08:28;14.18;;;7.55;;
43835;SDS011;39345;43.964;25.340;2022-07-29T03:10:57;11.73;;;7.75;;
43835;SDS011;39345;43.964;25.340;2022-07-29T03:13:25;20.77;;;7.22;;
43835;SDS011;39345;43.964;25.340;2022-07-29T03:15:52;12.43;;;7.55;;
43835;SDS011;39345;43.964;25.340;2022-07-29T03:18:21;11.35;;;7.60;;
43835;SDS011;39345;43.964;25.340;2022-07-29T03:20:48;9.90;;;7.78;;
43835;SDS011;39345;43.964;25.340;2022-07-29T03:23:19;7.25;;;6.57;;
43835;SDS011;39345;43.964;25.340;2022-07-29T03:25:49;9.32;;;7.43;;
43835;SDS011;39345;43.964;25.340;2022-07-29T03:28:17;12.50;;;7.18;;
43835;SDS011;39345;43.964;25.340;2022-07-29T03:30:44;9.95;;;7.15;;
43835;SDS011;39345;43.964;25.340;2022-07-29T03:33:13;10.45;;;7.43;;
43835;SDS011;39345;43.964;25.340;2022-07-29T03:35:41;9.20;;;7.13;;
43835;SDS011;39345;43.964;25.340;2022-07-29T03:38:08;10.98;;;7.60;;
43835;SDS011;39345;43.964;25.340;2022-07-29T03:40:48;11.27;;;7.40;;
43835;SDS011;39345;43.964;25.340;2022-07-29T03:43:17;10.00;;;7.68;;
43835;SDS011;39345;43.964;25.340;2022-07-29T03:45:47;10.27;;;7.20;;
43835;SDS011;39345;43.964;25.340;2022-07-29T03:48:16;10.85;;;7.60;;
43835;SDS011;39345;43.964;25.340;2022-07-29T03:50:44;12.07;;;7.95;;
43835;SDS011;39345;43.964;25.340;2022-07-29T03:53:12;11.05;;;8.07;;
43835;SDS011;39345;43.964;25.340;2022-07-29T03:55:41;11.43;;;8.27;;
43835;SDS011;39345;43.964;25.340;2022-07-29T03:58:09;8.82;;;7.10;;
43835;SDS011;39345;43.964;25.340;2022-07-29T04:00:38;10.25;;;9.13;;
43835;SDS011;39345;43.964;25.340;2022-07-29T04:03:06;10.15;;;8.40;;
43835;SDS011;39345;43.964;25.340;2022-07-29T04:05:37;11.45;;;7.53;;
43835;SDS011;39345;43.964;25.340;2022-07-29T04:08:04;12.27;;;7.72;;
43835;SDS011;39345;43.964;25.340;2022-07-29T04:10:32;12.13;;;8.60;;
43835;SDS011;39345;43.964;25.340;2022-07-29T04:13:01;14.35;;;9.90;;
43835;SDS011;39345;43.964;25.340;2022-07-29T04:15:28;13.30;;;8.77;;
43835;SDS011;39345;43.964;25.340;2022-07-29T04:17:57;12.25;;;9.77;;
43835;SDS011;39345;43.964;25.340;2022-07-29T04:20:25;10.43;;;7.88;;
43835;SDS011;39345;43.964;25.340;2022-07-29T04:22:52;10.05;;;7.95;;
43835;SDS011;39345;43.964;25.340;2022-07-29T04:25:20;11.23;;;8.45;;
43835;SDS011;39345;43.964;25.340;2022-07-29T04:27:48;14.82;;;8.85;;
43835;SDS011;39345;43.964;25.340;2022-07-29T04:30:28;15.23;;;9.90;;
43835;SDS011;39345;43.964;25.340;2022-07-29T04:32:56;12.45;;;8.43;;
43835;SDS011;39345;43.964;25.340;2022-07-29T04:35:23;12.35;;;8.27;;
43835;SDS011;39345;43.964;25.340;2022-07-29T04:37:51;10.70;;;7.57;;
43835;SDS011;39345;43.964;25.340;2022-07-29T04:40:18;9.50;;;8.15;;
43835;SDS011;39345;43.964;25.340;2022-07-29T04:42:46;10.82;;;8.18;;
43835;SDS011;39345;43.964;25.340;2022-07-29T04:45:15;11.50;;;8.10;;
43835;SDS011;39345;43.964;25.340;2022-07-29T04:47:48;11.98;;;7.55;;
43835;SDS011;39345;43.964;25.340;2022-07-29T04:50:15;7.70;;;6.90;;
43835;SDS011;39345;43.964;25.340;2022-07-29T04:52:43;9.45;;;6.13;;
43835;SDS011;39345;43.964;25.340;2022-07-29T04:55:10;9.20;;;7.05;;
43835;SDS011;39345;43.964;25.340;2022-07-29T04:57:38;8.68;;;6.70;;
43835;SDS011;39345;43.964;25.340;2022-07-29T05:00:06;8.77;;;6.85;;
43835;SDS011;39345;43.964;25.340;2022-07-29T05:02:33;8.40;;;6.85;;
43835;SDS011;39345;43.964;25.340;2022-07-29T05:05:01;10.05;;;6.45;;
43835;SDS011;39345;43.964;25.340;2022-07-29T05:07:28;8.73;;;6.43;;
43835;SDS011;39345;43.964;25.340;2022-07-29T05:09:56;11.63;;;6.65;;
43835;SDS011;39345;43.964;25.340;2022-07-29T05:12:24;8.10;;;5.90;;
43835;SDS011;39345;43.964;25.340;2022-07-29T05:14:51;8.38;;;6.30;;
43835;SDS011;39345;43.964;25.340;2022-07-29T05:17:19;7.38;;;6.18;;
43835;SDS011;39345;43.964;25.340;2022-07-29T05:19:47;8.20;;;6.03;;
43835;SDS011;39345;43.964;25.340;2022-07-29T05:22:14;7.13;;;5.78;;
43835;SDS011;39345;43.964;25.340;2022-07-29T05:24:42;8.02;;;5.90;;
43835;SDS011;39345;43.964;25.340;2022-07-29T05:27:09;9.95;;;6.10;;
43835;SDS011;39345;43.964;25.340;2022-07-29T05:29:37;6.75;;;5.85;;
43835;SDS011;39345;43.964;25.340;2022-07-29T05:32:10;8.30;;;5.63;;
43835;SDS011;39345;43.964;25.340;2022-07-29T05:34:38;6.63;;;5.43;;
43835;SDS011;39345;43.964;25.340;2022-07-29T05:37:18;5.97;;;5.32;;
43835;SDS011;39345;43.964;25.340;2022-07-29T05:39:45;7.28;;;5.38;;
43835;SDS011;39345;43.964;25.340;2022-07-29T05:42:21;6.60;;;5.72;;
43835;SDS011;39345;43.964;25.340;2022-07-29T05:44:49;7.95;;;5.55;;
43835;SDS011;39345;43.964;25.340;2022-07-29T05:47:17;6.68;;;5.03;;
43835;SDS011;39345;43.964;25.340;2022-07-29T05:49:45;10.40;;;7.47;;
43835;SDS011;39345;43.964;25.340;2022-07-29T05:52:12;8.70;;;6.90;;
43835;SDS011;39345;43.964;25.340;2022-07-29T05:54:40;8.30;;;5.70;;
43835;SDS011;39345;43.964;25.340;2022-07-29T05:57:08;6.70;;;5.53;;
43835;SDS011;39345;43.964;25.340;2022-07-29T05:59:35;10.73;;;5.95;;
43835;SDS011;39345;43.964;25.340;2022-07-29T06:02:03;6.97;;;5.13;;
43835;SDS011;39345;43.964;25.340;2022-07-29T06:04:34;7.78;;;5.35;;
43835;SDS011;39345;43.964;25.340;2022-07-29T06:07:01;7.30;;;6.47;;
43835;SDS011;39345;43.964;25.340;2022-07-29T06:09:29;6.63;;;5.50;;
43835;SDS011;39345;43.964;25.340;2022-07-29T06:11:57;6.50;;;4.63;;
43835;SDS011;39345;43.964;25.340;2022-07-29T06:14:25;7.03;;;4.45;;
43835;SDS011;39345;43.964;25.340;2022-07-29T06:16:55;6.72;;;4.25;;
43835;SDS011;39345;43.964;25.340;2022-07-29T06:19:23;8.15;;;4.63;;
43835;SDS011;39345;43.964;25.340;2022-07-29T06:21:50;7.03;;;4.00;;
43835;SDS011;39345;43.964;25.340;2022-07-29T06:24:18;7.30;;;4.07;;
43835;SDS011;39345;43.964;25.340;2022-07-29T06:26:46;7.18;;;4.22;;
43835;SDS011;39345;43.964;25.340;2022-07-29T06:29:13;10.68;;;4.97;;
43835;SDS011;39345;43.964;25.340;2022-07-29T06:31:41;4.95;;;4.13;;
43835;SDS011;39345;43.964;25.340;2022-07-29T06:34:08;8.27;;;3.83;;
43835;SDS011;39345;43.964;25.340;2022-07-29T06:36:37;5.75;;;4.00;;
43835;SDS011;39345;43.964;25.340;2022-07-29T06:39:06;9.02;;;4.13;;
43835;SDS011;39345;43.964;25.340;2022-07-29T06:41:34;5.85;;;4.00;;
43835;SDS011;39345;43.964;25.340;2022-07-29T06:44:08;5.28;;;3.92;;
43835;SDS011;39345;43.964;25.340;2022-07-29T06:46:35;6.90;;;3.35;;
43835;SDS011;39345;43.964;25.340;2022-07-29T06:49:03;5.60;;;3.45;;
43835;SDS011;39345;43.964;25.340;2022-07-29T06:51:31;5.13;;;3.30;;
43835;SDS011;39345;43.964;25.340;2022-07-29T06:53:59;7.75;;;3.30;;
43835;SDS011;39345;43.964;25.340;2022-07-29T06:56:32;5.93;;;3.53;;
43835;SDS011;39345;43.964;25.340;2022-07-29T06:59:09;6.35;;;3.50;;
43835;SDS011;39345;43.964;25.340;2022-07-29T07:01:37;5.50;;;3.72;;
43835;SDS011;39345;43.964;25.340;2022-07-29T07:04:05;5.85;;;3.15;;
43835;SDS011;39345;43.964;25.340;2022-07-29T07:06:34;7.43;;;4.10;;
43835;SDS011;39345;43.964;25.340;2022-07-29T07:09:02;5.97;;;3.40;;
43835;SDS011;39345;43.964;25.340;2022-07-29T07:11:30;5.07;;;3.20;;
43835;SDS011;39345;43.964;25.340;2022-07-29T07:13:58;4.32;;;3.10;;
43835;SDS011;39345;43.964;25.340;2022-07-29T07:16:39;5.00;;;3.20;;
43835;SDS011;39345;43.964;25.340;2022-07-29T07:19:07;8.80;;;3.53;;
43835;SDS011;39345;43.964;25.340;2022-07-29T07:21:35;6.25;;;3.17;;
43835;SDS011;39345;43.964;25.340;2022-07-29T07:24:02;3.70;;;2.92;;
43835;SDS011;39345;43.964;25.340;2022-07-29T07:26:30;3.70;;;2.92;;
43835;SDS011;39345;43.964;25.340;2022-07-29T07:28:58;4.18;;;2.90;;
43835;SDS011;39345;43.964;25.340;2022-07-29T07:31:26;4.93;;;3.25;;
43835;SDS011;39345;43.964;25.340;2022-07-29T07:33:54;5.47;;;3.38;;
43835;SDS011;39345;43.964;25.340;2022-07-29T07:36:22;4.55;;;2.90;;
43835;SDS011;39345;43.964;25.340;2022-07-29T07:38:49;3.67;;;3.00;;
43835;SDS011;39345;43.964;25.340;2022-07-29T07:41:17;6.13;;;2.75;;
43835;SDS011;39345;43.964;25.340;2022-07-29T07:43:44;6.85;;;3.25;;
43835;SDS011;39345;43.964;25.340;2022-07-29T07:46:12;3.85;;;2.90;;
43835;SDS011;39345;43.964;25.340;2022-07-29T07:48:40;5.60;;;3.00;;
43835;SDS011;39345;43.964;25.340;2022-07-29T07:51:07;3.38;;;2.70;;
43835;SDS011;39345;43.964;25.340;2022-07-29T07:53:35;6.05;;;3.58;;
43835;SDS011;39345;43.964;25.340;2022-07-29T07:56:03;7.93;;;3.17;;
43835;SDS011;39345;43.964;25.340;2022-07-29T07:58:36;3.38;;;2.80;;
43835;SDS011;39345;43.964;25.340;2022-07-29T08:01:05;5.43;;;3.20;;
43835;SDS011;39345;43.964;25.340;2022-07-29T08:03:32;8.20;;;2.80;;
43835;SDS011;39345;43.964;25.340;2022-07-29T08:06:00;5.40;;;3.20;;
43835;SDS011;39345;43.964;25.340;2022-07-29T08:08:28;7.00;;;5.38;;
43835;SDS011;39345;43.964;25.340;2022-07-29T08:10:56;8.05;;;2.97;;
43835;SDS011;39345;43.964;25.340;2022-07-29T08:13:30;6.55;;;3.45;;
43835;SDS011;39345;43.964;25.340;2022-07-29T08:15:58;5.45;;;3.22;;
43835;SDS011;39345;43.964;25.340;2022-07-29T08:18:28;4.75;;;3.10;;
43835;SDS011;39345;43.964;25.340;2022-07-29T08:20:57;3.20;;;2.90;;
43835;SDS011;39345;43.964;25.340;2022-07-29T08:23:24;5.22;;;3.05;;
43835;SDS011;39345;43.964;25.340;2022-07-29T08:26:10;5.63;;;3.13;;
43835;SDS011;39345;43.964;25.340;2022-07-29T08:28:39;7.13;;;3.72;;
43835;SDS011;39345;43.964;25.340;2022-07-29T08:31:06;6.90;;;3.33;;
43835;SDS011;39345;43.964;25.340;2022-07-29T08:33:34;5.70;;;3.28;;
43835;SDS011;39345;43.964;25.340;2022-07-29T08:36:02;14.77;;;3.90;;
43835;SDS011;39345;43.964;25.340;2022-07-29T08:38:29;4.03;;;3.13;;
43835;SDS011;39345;43.964;25.340;2022-07-29T08:40:57;4.10;;;3.30;;
43835;SDS011;39345;43.964;25.340;2022-07-29T08:43:25;7.03;;;2.90;;
43835;SDS011;39345;43.964;25.340;2022-07-29T08:45:53;4.65;;;3.50;;
43835;SDS011;39345;43.964;25.340;2022-07-29T08:48:21;5.22;;;4.00;;
43835;SDS011;39345;43.964;25.340;2022-07-29T08:50:55;5.72;;;3.10;;
43835;SDS011;39345;43.964;25.340;2022-07-29T08:53:24;6.13;;;3.03;;
43835;SDS011;39345;43.964;25.340;2022-07-29T08:55:53;4.68;;;3.55;;
43835;SDS011;39345;43.964;25.340;2022-07-29T08:58:21;6.55;;;3.10;;
43835;SDS011;39345;43.964;25.340;2022-07-29T09:00:52;5.43;;;3.00;;
43835;SDS011;39345;43.964;25.340;2022-07-29T09:03:24;3.70;;;2.95;;
43835;SDS011;39345;43.964;25.340;2022-07-29T09:05:52;4.70;;;3.08;;
43835;SDS011;39345;43.964;25.340;2022-07-29T09:08:20;5.63;;;3.17;;
43835;SDS011;39345;43.964;25.340;2022-07-29T09:10:48;5.03;;;3.80;;
43835;SDS011;39345;43.964;25.340;2022-07-29T09:13:16;4.95;;;3.30;;
43835;SDS011;39345;43.964;25.340;2022-07-29T09:15:44;5.43;;;3.13;;
43835;SDS011;39345;43.964;25.340;2022-07-29T09:18:12;3.83;;;3.13;;
43835;SDS011;39345;43.964;25.340;2022-07-29T09:20:56;6.97;;;3.28;;
43835;SDS011;39345;43.964;25.340;2022-07-29T09:23:58;3.95;;;3.15;;
43835;SDS011;39345;43.964;25.340;2022-07-29T09:26:34;4.25;;;2.80;;
43835;SDS011;39345;43.964;25.340;2022-07-29T09:29:09;4.20;;;3.13;;
43835;SDS011;39345;43.964;25.340;2022-07-29T09:31:38;5.57;;;3.10;;
43835;SDS011;39345;43.964;25.340;2022-07-29T09:34:07;7.13;;;3.60;;
43835;SDS011;39345;43.964;25.340;2022-07-29T09:36:42;4.82;;;3.00;;
43835;SDS011;39345;43.964;25.340;2022-07-29T09:39:09;4.78;;;3.50;;
43835;SDS011;39345;43.964;25.340;2022-07-29T09:41:47;5.60;;;4.15;;
43835;SDS011;39345;43.964;25.340;2022-07-29T09:44:15;9.75;;;3.90;;
43835;SDS011;39345;43.964;25.340;2022-07-29T09:46:55;6.40;;;3.30;;
43835;SDS011;39345;43.964;25.340;2022-07-29T09:49:24;39.88;;;4.97;;
43835;SDS011;39345;43.964;25.340;2022-07-29T09:51:59;6.38;;;3.25;;
43835;SDS011;39345;43.964;25.340;2022-07-29T09:54:27;12.38;;;2.90;;
43835;SDS011;39345;43.964;25.340;2022-07-29T09:57:00;5.45;;;3.10;;
43835;SDS011;39345;43.964;25.340;2022-07-29T09:59:28;6.07;;;2.88;;
43835;SDS011;39345;43.964;25.340;2022-07-29T10:01:56;8.23;;;3.03;;
43835;SDS011;39345;43.964;25.340;2022-07-29T10:04:29;9.57;;;3.90;;
43835;SDS011;39345;43.964;25.340;2022-07-29T10:07:03;5.75;;;2.55;;
43835;SDS011;39345;43.964;25.340;2022-07-29T10:09:32;12.68;;;3.05;;
43835;SDS011;39345;43.964;25.340;2022-07-29T10:12:07;6.80;;;2.70;;
43835;SDS011;39345;43.964;25.340;2022-07-29T10:14:35;20.40;;;3.35;;
43835;SDS011;39345;43.964;25.340;2022-07-29T10:17:04;22.80;;;3.53;;
43835;SDS011;39345;43.964;25.340;2022-07-29T10:19:32;8.30;;;2.60;;
43835;SDS011;39345;43.964;25.340;2022-07-29T10:22:00;4.22;;;2.63;;
43835;SDS011;39345;43.964;25.340;2022-07-29T10:24:29;5.18;;;2.85;;
43835;SDS011;39345;43.964;25.340;2022-07-29T10:26:59;7.18;;;2.70;;
43835;SDS011;39345;43.964;25.340;2022-07-29T10:29:27;4.20;;;2.80;;
43835;SDS011;39345;43.964;25.340;2022-07-29T10:34:25;13.10;;;2.60;;
43835;SDS011;39345;43.964;25.340;2022-07-29T10:44:45;5.85;;;3.00;;
43835;SDS011;39345;43.964;25.340;2022-07-29T10:47:46;5.10;;;4.28;;
43835;SDS011;39345;43.964;25.340;2022-07-29T10:50:07;6.55;;;3.13;;
43835;SDS011;39345;43.964;25.340;2022-07-29T10:57:43;8.50;;;3.72;;
43835;SDS011;39345;43.964;25.340;2022-07-29T11:00:32;6.07;;;3.83;;
43835;SDS011;39345;43.964;25.340;2022-07-29T11:02:59;5.68;;;3.83;;
43835;SDS011;39345;43.964;25.340;2022-07-29T11:08:20;4.90;;;2.95;;
43835;SDS011;39345;43.964;25.340;2022-07-29T11:11:30;3.65;;;3.20;;
43835;SDS011;39345;43.964;25.340;2022-07-29T11:16:12;3.10;;;2.72;;
43835;SDS011;39345;43.964;25.340;2022-07-29T11:21:44;9.52;;;4.50;;
43835;SDS011;39345;43.964;25.340;2022-07-29T11:24:29;6.40;;;3.85;;
43835;SDS011;39345;43.964;25.340;2022-07-29T11:29:40;12.20;;;4.65;;
43835;SDS011;39345;43.964;25.340;2022-07-29T11:32:35;7.90;;;5.38;;
43835;SDS011;39345;43.964;25.340;2022-07-29T11:41:18;7.43;;;4.30;;
43835;SDS011;39345;43.964;25.340;2022-07-29T11:49:06;4.85;;;2.95;;
43835;SDS011;39345;43.964;25.340;2022-07-29T11:51:38;9.50;;;2.95;;
43835;SDS011;39345;43.964;25.340;2022-07-29T11:54:26;10.95;;;3.30;;
43835;SDS011;39345;43.964;25.340;2022-07-29T11:56:58;4.10;;;3.55;;
43835;SDS011;39345;43.964;25.340;2022-07-29T11:59:26;6.28;;;3.40;;
43835;SDS011;39345;43.964;25.340;2022-07-29T12:02:00;7.28;;;3.72;;
43835;SDS011;39345;43.964;25.340;2022-07-29T12:04:52;4.75;;;3.13;;
43835;SDS011;39345;43.964;25.340;2022-07-29T12:07:29;5.80;;;3.40;;
43835;SDS011;39345;43.964;25.340;2022-07-29T12:10:02;3.08;;;2.78;;
43835;SDS011;39345;43.964;25.340;2022-07-29T12:12:31;9.25;;;2.75;;
43835;SDS011;39345;43.964;25.340;2022-07-29T12:15:20;3.25;;;2.45;;
43835;SDS011;39345;43.964;25.340;2022-07-29T12:17:47;3.10;;;2.80;;
43835;SDS011;39345;43.964;25.340;2022-07-29T12:20:22;7.18;;;2.88;;
43835;SDS011;39345;43.964;25.340;2022-07-29T12:22:50;4.20;;;3.30;;
43835;SDS011;39345;43.964;25.340;2022-07-29T12:25:20;3.97;;;3.05;;
43835;SDS011;39345;43.964;25.340;2022-07-29T12:28:04;7.28;;;3.00;;
43835;SDS011;39345;43.964;25.340;2022-07-29T12:30:46;3.20;;;2.60;;
43835;SDS011;39345;43.964;25.340;2022-07-29T12:33:24;7.57;;;3.22;;
43835;SDS011;39345;43.964;25.340;2022-07-29T12:35:59;9.52;;;4.28;;
43835;SDS011;39345;43.964;25.340;2022-07-29T12:38:33;7.68;;;3.38;;
43835;SDS011;39345;43.964;25.340;2022-07-29T12:41:01;4.18;;;2.70;;
43835;SDS011;39345;43.964;25.340;2022-07-29T12:43:30;4.05;;;3.00;;
43835;SDS011;39345;43.964;25.340;2022-07-29T12:46:10;6.35;;;3.15;;
43835;SDS011;39345;43.964;25.340;2022-07-29T12:48:39;5.75;;;2.90;;
43835;SDS011;39345;43.964;25.340;2022-07-29T12:51:07;4.88;;;2.80;;
43835;SDS011;39345;43.964;25.340;2022-07-29T12:53:36;3.28;;;2.58;;
43835;SDS011;39345;43.964;25.340;2022-07-29T12:56:04;4.03;;;2.70;;
43835;SDS011;39345;43.964;25.340;2022-07-29T12:58:52;3.08;;;2.53;;
43835;SDS011;39345;43.964;25.340;2022-07-29T13:01:20;3.17;;;2.88;;
43835;SDS011;39345;43.964;25.340;2022-07-29T13:03:54;4.03;;;2.80;;
43835;SDS011;39345;43.964;25.340;2022-07-29T13:14:05;3.85;;;2.92;;
43835;SDS011;39345;43.964;25.340;2022-07-29T13:16:32;4.95;;;3.10;;
43835;SDS011;39345;43.964;25.340;2022-07-29T13:19:07;5.07;;;3.05;;
43835;SDS011;39345;43.964;25.340;2022-07-29T13:21:35;4.70;;;2.65;;
43835;SDS011;39345;43.964;25.340;2022-07-29T13:24:04;5.28;;;2.80;;
43835;SDS011;39345;43.964;25.340;2022-07-29T13:26:32;4.10;;;3.70;;
43835;SDS011;39345;43.964;25.340;2022-07-29T13:28:59;6.18;;;3.35;;
43835;SDS011;39345;43.964;25.340;2022-07-29T13:31:27;4.07;;;2.70;;
43835;SDS011;39345;43.964;25.340;2022-07-29T13:33:54;3.92;;;2.58;;
43835;SDS011;39345;43.964;25.340;2022-07-29T13:36:22;4.03;;;2.92;;
43835;SDS011;39345;43.964;25.340;2022-07-29T13:38:50;4.63;;;3.08;;
43835;SDS011;39345;43.964;25.340;2022-07-29T13:41:17;6.50;;;3.50;;
43835;SDS011;39345;43.964;25.340;2022-07-29T13:43:45;3.85;;;2.78;;
43835;SDS011;39345;43.964;25.340;2022-07-29T13:46:15;5.20;;;3.28;;
43835;SDS011;39345;43.964;25.340;2022-07-29T13:48:43;3.10;;;2.83;;
43835;SDS011;39345;43.964;25.340;2022-07-29T13:51:10;5.97;;;3.40;;
43835;SDS011;39345;43.964;25.340;2022-07-29T13:53:38;3.72;;;2.97;;
43835;SDS011;39345;43.964;25.340;2022-07-29T13:56:06;4.07;;;3.05;;
43835;SDS011;39345;43.964;25.340;2022-07-29T13:58:33;7.05;;;3.85;;
43835;SDS011;39345;43.964;25.340;2022-07-29T14:01:01;5.45;;;3.17;;
43835;SDS011;39345;43.964;25.340;2022-07-29T14:03:29;4.18;;;2.70;;
43835;SDS011;39345;43.964;25.340;2022-07-29T14:05:56;7.32;;;2.72;;
43835;SDS011;39345;43.964;25.340;2022-07-29T14:08:26;6.63;;;3.55;;
43835;SDS011;39345;43.964;25.340;2022-07-29T14:10:54;3.95;;;3.15;;
43835;SDS011;39345;43.964;25.340;2022-07-29T14:13:21;5.18;;;3.55;;
43835;SDS011;39345;43.964;25.340;2022-07-29T14:15:51;9.60;;;4.63;;
43835;SDS011;39345;43.964;25.340;2022-07-29T14:18:19;4.78;;;3.17;;
43835;SDS011;39345;43.964;25.340;2022-07-29T14:20:47;8.27;;;3.75;;
43835;SDS011;39345;43.964;25.340;2022-07-29T14:23:14;5.35;;;3.35;;
43835;SDS011;39345;43.964;25.340;2022-07-29T14:25:45;3.53;;;3.20;;
43835;SDS011;39345;43.964;25.340;2022-07-29T14:28:14;10.52;;;4.63;;
43835;SDS011;39345;43.964;25.340;2022-07-29T14:30:42;6.18;;;4.00;;
43835;SDS011;39345;43.964;25.340;2022-07-29T14:33:10;7.20;;;3.45;;
43835;SDS011;39345;43.964;25.340;2022-07-29T14:35:37;4.65;;;3.80;;
43835;SDS011;39345;43.964;25.340;2022-07-29T14:38:05;6.55;;;4.10;;
43835;SDS011;39345;43.964;25.340;2022-07-29T14:40:33;5.88;;;3.80;;
43835;SDS011;39345;43.964;25.340;2022-07-29T14:43:01;6.75;;;3.60;;
43835;SDS011;39345;43.964;25.340;2022-07-29T14:45:29;9.00;;;4.63;;
43835;SDS011;39345;43.964;25.340;2022-07-29T14:47:56;11.25;;;4.43;;
43835;SDS011;39345;43.964;25.340;2022-07-29T14:50:25;5.68;;;4.00;;
43835;SDS011;39345;43.964;25.340;2022-07-29T14:52:57;7.50;;;3.72;;
43835;SDS011;39345;43.964;25.340;2022-07-29T14:55:25;7.15;;;4.00;;
43835;SDS011;39345;43.964;25.340;2022-07-29T14:57:53;4.63;;;3.50;;
43835;SDS011;39345;43.964;25.340;2022-07-29T15:00:33;5.97;;;3.28;;
43835;SDS011;39345;43.964;25.340;2022-07-29T15:03:02;4.85;;;3.20;;
43835;SDS011;39345;43.964;25.340;2022-07-29T15:05:30;6.70;;;6.00;;
43835;SDS011;39345;43.964;25.340;2022-07-29T15:07:58;7.03;;;4.22;;
43835;SDS011;39345;43.964;25.340;2022-07-29T15:10:26;6.15;;;4.18;;
43835;SDS011;39345;43.964;25.340;2022-07-29T15:12:55;3.33;;;3.03;;
43835;SDS011;39345;43.964;25.340;2022-07-29T15:15:23;4.93;;;3.58;;
43835;SDS011;39345;43.964;25.340;2022-07-29T15:17:50;3.83;;;3.00;;
43835;SDS011;39345;43.964;25.340;2022-07-29T15:20:19;8.18;;;3.20;;
43835;SDS011;39345;43.964;25.340;2022-07-29T15:22:47;8.75;;;5.10;;
43835;SDS011;39345;43.964;25.340;2022-07-29T15:25:17;4.75;;;2.90;;
43835;SDS011;39345;43.964;25.340;2022-07-29T15:27:45;3.95;;;3.30;;
43835;SDS011;39345;43.964;25.340;2022-07-29T15:30:18;3.95;;;3.03;;
43835;SDS011;39345;43.964;25.340;2022-07-29T15:33:02;5.50;;;3.60;;
43835;SDS011;39345;43.964;25.340;2022-07-29T15:35:36;5.72;;;3.88;;
43835;SDS011;39345;43.964;25.340;2022-07-29T15:38:06;4.88;;;3.28;;
43835;SDS011;39345;43.964;25.340;2022-07-29T15:40:37;4.50;;;3.38;;
43835;SDS011;39345;43.964;25.340;2022-07-29T15:43:07;6.43;;;4.75;;
43835;SDS011;39345;43.964;25.340;2022-07-29T15:45:38;4.22;;;3.20;;
43835;SDS011;39345;43.964;25.340;2022-07-29T15:48:08;3.50;;;3.17;;
43835;SDS011;39345;43.964;25.340;2022-07-29T15:50:40;4.13;;;3.15;;
43835;SDS011;39345;43.964;25.340;2022-07-29T15:53:12;5.22;;;3.20;;